Time;durP1;ratioP1;P1;durP2;ratioP2;P2;SDS_P1;SDS_P2;PMS_P1;PMS_P2;Temp;Humidity;BMP_temperature;BMP_pressure;BME280_temperature;BME280_humidity;BME280_pressure;Samples;Min_cycle;Max_cycle;Signal;HPM_P1;HPM_P2
2023/09/28 00:01:13;;;;;;;13.03;9.63;;;18.50;99.90;;;;;;5073567;28;20076;-66
2023/09/28 00:03:39;;;;;;;12.70;10.67;;;18.50;99.90;;;;;;5073515;28;20045;-66
2023/09/28 00:06:04;;;;;;;12.50;9.73;;;18.50;99.90;;;;;;5073209;28;20063;-66
2023/09/28 00:08:32;;;;;;;11.53;9.67;;;18.50;99.90;;;;;;5073143;28;20079;-66
2023/09/28 00:10:58;;;;;;;12.07;9.40;;;18.50;99.90;;;;;;5073516;28;20048;-66
2023/09/28 00:13:24;;;;;;;11.93;9.63;;;18.50;99.90;;;;;;5073352;28;20048;-66
2023/09/28 00:15:50;;;;;;;12.63;8.87;;;18.50;99.90;;;;;;5073402;28;20185;-66
2023/09/28 00:18:16;;;;;;;12.13;9.23;;;18.50;99.90;;;;;;5073380;28;20481;-66
2023/09/28 00:20:41;;;;;;;12.23;9.10;;;18.50;99.90;;;;;;5073318;28;20048;-66
2023/09/28 00:23:07;;;;;;;10.90;8.00;;;18.50;99.90;;;;;;5074171;28;20486;-66
2023/09/28 00:25:33;;;;;;;9.00;8.10;;;18.40;99.90;;;;;;5076146;28;20507;-66
2023/09/28 00:27:58;;;;;;;11.90;8.30;;;18.50;99.90;;;;;;5077733;28;20052;-66
2023/09/28 00:30:26;;;;;;;11.10;7.57;;;18.40;99.90;;;;;;5077877;28;20560;-66
2023/09/28 00:32:55;;;;;;;12.93;7.70;;;18.50;99.90;;;;;;5078145;28;20342;-66
2023/09/28 00:35:22;;;;;;;13.47;7.33;;;18.40;99.90;;;;;;5077188;28;20048;-68
2023/09/28 00:37:49;;;;;;;10.33;8.10;;;18.50;99.90;;;;;;5077185;28;20131;-66
2023/09/28 00:40:28;;;;;;;9.00;7.60;;;18.50;99.90;;;;;;5077898;28;20063;-66
2023/09/28 00:42:55;;;;;;;11.53;7.90;;;18.50;99.90;;;;;;5076858;28;20070;-66
2023/09/28 00:45:22;;;;;;;9.13;7.03;;;18.40;99.90;;;;;;5075795;28;20409;-66
2023/09/28 00:47:50;;;;;;;10.13;6.77;;;18.50;99.90;;;;;;5077383;28;20376;-66
2023/09/28 00:50:17;;;;;;;13.20;6.90;;;18.40;99.90;;;;;;5077057;28;20049;-66
2023/09/28 00:52:48;;;;;;;11.00;6.87;;;18.50;99.90;;;;;;5076892;28;20048;-66
2023/09/28 00:55:16;;;;;;;9.43;7.00;;;18.50;99.90;;;;;;5076979;28;20052;-66
2023/09/28 00:57:43;;;;;;;9.47;6.17;;;18.50;99.90;;;;;;5076848;28;20091;-66
2023/09/28 01:00:18;;;;;;;8.50;6.23;;;18.40;99.90;;;;;;5076861;28;20119;-66
2023/09/28 01:02:51;;;;;;;11.13;6.83;;;18.40;99.90;;;;;;5076773;28;20081;-66
2023/09/28 01:05:22;;;;;;;8.73;6.67;;;18.40;99.90;;;;;;5076798;28;20089;-66
2023/09/28 01:07:48;;;;;;;13.93;7.00;;;18.40;99.90;;;;;;5075544;28;20080;-66
2023/09/28 01:10:20;;;;;;;9.07;6.70;;;18.40;99.90;;;;;;5076902;28;20509;-66
2023/09/28 01:12:47;;;;;;;8.97;6.13;;;18.40;99.90;;;;;;5076536;28;20449;-66
2023/09/28 01:15:13;;;;;;;8.83;7.13;;;18.30;99.90;;;;;;5076813;28;20117;-66
2023/09/28 01:17:40;;;;;;;9.43;6.30;;;18.30;99.90;;;;;;5076480;28;20056;-66
2023/09/28 01:20:23;;;;;;;8.00;6.10;;;18.30;99.90;;;;;;5076523;28;20072;-66
2023/09/28 01:22:50;;;;;;;8.53;7.30;;;18.30;99.90;;;;;;5076115;28;20518;-66
2023/09/28 01:25:18;;;;;;;10.67;7.17;;;18.30;99.90;;;;;;5076371;28;20048;-64
2023/09/28 01:27:48;;;;;;;9.93;6.73;;;18.20;99.90;;;;;;5077034;28;20361;-64
2023/09/28 01:30:14;;;;;;;9.27;7.17;;;18.20;99.90;;;;;;5076521;28;20053;-64
2023/09/28 01:32:42;;;;;;;9.60;7.10;;;18.20;99.90;;;;;;5076783;28;20365;-64
2023/09/28 01:35:08;;;;;;;10.60;6.87;;;18.20;99.90;;;;;;5075986;28;20055;-63
2023/09/28 01:37:54;;;;;;;11.53;6.60;;;18.20;99.90;;;;;;5075726;28;20519;-64
2023/09/28 01:40:19;;;;;;;9.13;6.50;;;18.10;99.90;;;;;;5076159;28;20098;-64
2023/09/28 01:42:45;;;;;;;9.97;6.87;;;18.10;99.90;;;;;;5075025;28;20044;-64
2023/09/28 01:45:12;;;;;;;9.87;6.43;;;18.10;99.90;;;;;;5076255;28;20052;-64
2023/09/28 01:47:38;;;;;;;11.70;6.37;;;18.00;99.90;;;;;;5076523;28;20052;-64
2023/09/28 01:50:05;;;;;;;11.87;6.80;;;18.00;99.90;;;;;;5075910;28;20047;-64
2023/09/28 01:52:30;;;;;;;11.70;6.80;;;18.00;99.90;;;;;;5074859;28;20366;-64
2023/09/28 01:54:56;;;;;;;8.80;6.70;;;18.00;99.90;;;;;;5075810;28;20048;-64
2023/09/28 01:57:22;;;;;;;9.33;6.27;;;18.00;99.90;;;;;;5074781;28;20080;-64
2023/09/28 01:59:47;;;;;;;9.70;7.20;;;17.90;99.90;;;;;;5075741;28;20044;-64
2023/09/28 02:02:15;;;;;;;9.07;6.60;;;17.90;99.90;;;;;;5075446;28;20087;-64
2023/09/28 02:04:41;;;;;;;10.83;6.63;;;17.90;99.90;;;;;;5075640;28;20052;-64
2023/09/28 02:07:06;;;;;;;7.50;6.40;;;17.90;99.90;;;;;;5075875;28;20048;-64
2023/09/28 02:09:32;;;;;;;9.53;7.17;;;17.90;99.90;;;;;;5076071;28;20123;-64
2023/09/28 02:12:00;;;;;;;9.93;6.50;;;17.80;99.90;;;;;;5075371;28;20056;-64
2023/09/28 02:14:27;;;;;;;8.87;7.27;;;17.80;99.90;;;;;;5075270;28;20063;-64
2023/09/28 02:16:52;;;;;;;8.77;7.23;;;17.80;99.90;;;;;;5074205;28;20059;-64
2023/09/28 02:19:18;;;;;;;8.20;6.77;;;17.80;99.90;;;;;;5074399;28;20098;-64
2023/09/28 02:21:46;;;;;;;9.47;7.63;;;17.70;99.90;;;;;;5074099;28;20044;-64
2023/09/28 02:24:12;;;;;;;8.63;6.43;;;17.70;99.90;;;;;;5075248;28;20052;-64
2023/09/28 02:26:38;;;;;;;9.47;7.50;;;17.70;99.90;;;;;;5075193;28;20113;-64
2023/09/28 02:29:04;;;;;;;14.67;7.30;;;17.60;99.90;;;;;;5075183;28;20044;-64
2023/09/28 02:31:31;;;;;;;14.10;7.17;;;17.60;99.90;;;;;;5075379;28;20056;-64
2023/09/28 02:33:56;;;;;;;8.50;6.80;;;17.60;99.90;;;;;;5075004;28;20076;-64
2023/09/28 02:36:22;;;;;;;10.17;7.50;;;17.60;99.90;;;;;;5075790;28;20434;-64
2023/09/28 02:38:48;;;;;;;9.17;7.53;;;17.50;99.90;;;;;;5074904;28;20049;-64
2023/09/28 02:41:20;;;;;;;9.37;7.47;;;17.50;99.90;;;;;;5075159;28;20190;-64
2023/09/28 02:43:46;;;;;;;9.40;7.47;;;17.50;99.90;;;;;;5074835;28;20040;-64
2023/09/28 02:46:13;;;;;;;11.57;7.80;;;17.40;99.90;;;;;;5074813;28;20132;-64
2023/09/28 02:48:39;;;;;;;12.13;7.83;;;17.40;99.90;;;;;;5074455;28;20117;-65
2023/09/28 02:51:06;;;;;;;12.47;8.27;;;17.30;99.90;;;;;;5074996;28;20052;-64
2023/09/28 02:53:32;;;;;;;10.70;8.10;;;17.30;99.90;;;;;;5074594;28;20045;-64
2023/09/28 02:55:57;;;;;;;11.97;8.13;;;17.30;99.90;;;;;;5075419;28;20055;-64
2023/09/28 02:58:24;;;;;;;12.77;7.73;;;17.30;99.90;;;;;;5074852;28;20365;-64
2023/09/28 03:00:52;;;;;;;8.77;7.27;;;17.20;99.90;;;;;;5074499;28;20087;-64
2023/09/28 03:03:18;;;;;;;10.53;7.43;;;17.20;99.90;;;;;;5074437;28;20044;-64
2023/09/28 03:05:44;;;;;;;10.47;7.30;;;17.10;99.90;;;;;;5074364;28;20060;-64
2023/09/28 03:08:14;;;;;;;10.90;7.27;;;17.10;99.90;;;;;;5074341;28;20057;-64
2023/09/28 03:10:43;;;;;;;10.37;7.63;;;17.10;99.90;;;;;;5074304;28;20552;-64
2023/09/28 03:13:11;;;;;;;10.57;8.10;;;17.10;99.90;;;;;;5074155;28;20051;-64
2023/09/28 03:15:40;;;;;;;9.07;7.10;;;17.10;99.90;;;;;;5074206;28;20535;-64
2023/09/28 03:18:06;;;;;;;12.73;7.60;;;17.10;99.90;;;;;;5074648;28;20095;-64
2023/09/28 03:20:31;;;;;;;10.10;7.73;;;17.00;99.90;;;;;;5074129;28;20083;-64
2023/09/28 03:22:57;;;;;;;10.63;7.17;;;17.00;99.90;;;;;;5074343;28;20051;-64
2023/09/28 03:25:23;;;;;;;10.57;7.93;;;17.00;99.90;;;;;;5074041;28;20435;-64
2023/09/28 03:27:53;;;;;;;11.13;7.13;;;17.00;99.90;;;;;;5073977;28;20131;-64
2023/09/28 03:30:21;;;;;;;8.70;6.80;;;16.90;99.90;;;;;;5073970;28;20500;-64
2023/09/28 03:32:47;;;;;;;11.50;7.50;;;16.90;99.90;;;;;;5073879;28;20546;-64
2023/09/28 03:35:15;;;;;;;8.83;7.37;;;16.90;99.90;;;;;;5073878;28;20481;-64
2023/09/28 03:37:41;;;;;;;8.83;7.33;;;16.90;99.90;;;;;;5074184;28;20044;-64
2023/09/28 03:40:11;;;;;;;9.03;7.80;;;16.90;99.90;;;;;;5073819;28;20103;-64
2023/09/28 03:42:40;;;;;;;13.67;8.47;;;16.90;99.90;;;;;;5073775;28;20052;-64
2023/09/28 03:45:10;;;;;;;10.90;6.80;;;16.90;99.90;;;;;;5073728;28;20102;-64
2023/09/28 03:47:37;;;;;;;9.73;7.80;;;16.80;99.90;;;;;;5074380;28;20393;-64
2023/09/28 03:50:04;;;;;;;11.47;7.50;;;16.80;99.90;;;;;;5073344;28;20457;-64
2023/09/28 03:52:30;;;;;;;11.00;8.43;;;16.80;99.90;;;;;;5073546;28;20044;-64
2023/09/28 03:54:56;;;;;;;13.73;7.90;;;16.80;99.90;;;;;;5074148;28;20090;-64
2023/09/28 03:57:22;;;;;;;9.73;7.13;;;16.80;99.90;;;;;;5090302;28;20060;-64
2023/09/28 03:59:48;;;;;;;8.83;7.23;;;16.80;99.90;;;;;;5073427;28;20049;-65
2023/09/28 04:02:14;;;;;;;10.33;7.80;;;16.80;99.90;;;;;;5073259;28;20400;-64
2023/09/28 04:04:40;;;;;;;11.03;8.20;;;16.80;99.90;;;;;;5072360;28;20044;-64
2023/09/28 04:07:07;;;;;;;13.83;8.03;;;16.70;99.90;;;;;;5073492;28;20047;-64
2023/09/28 04:09:32;;;;;;;10.73;8.63;;;16.70;99.90;;;;;;5073495;28;20178;-64
2023/09/28 04:11:59;;;;;;;12.50;7.73;;;16.70;99.90;;;;;;5073357;28;20067;-64
2023/09/28 04:14:24;;;;;;;13.40;9.27;;;16.70;99.90;;;;;;5073438;28;20044;-64
2023/09/28 04:16:50;;;;;;;12.40;8.50;;;16.70;99.90;;;;;;5074000;28;20530;-65
2023/09/28 04:19:16;;;;;;;11.30;7.43;;;16.70;99.90;;;;;;5072149;28;20084;-64
2023/09/28 04:21:42;;;;;;;9.40;7.07;;;16.70;99.90;;;;;;5073365;28;20041;-64
2023/09/28 04:24:08;;;;;;;11.53;8.13;;;16.60;99.90;;;;;;5073768;28;20090;-64
2023/09/28 04:26:34;;;;;;;13.77;8.13;;;16.60;99.90;;;;;;5074081;28;20105;-64
2023/09/28 04:29:00;;;;;;;11.73;8.50;;;16.60;99.90;;;;;;5073242;28;20135;-64
2023/09/28 04:31:26;;;;;;;15.57;9.87;;;16.60;99.90;;;;;;5073786;28;20498;-64
2023/09/28 04:33:52;;;;;;;12.80;8.03;;;16.60;99.90;;;;;;5071887;28;20052;-66
2023/09/28 04:36:18;;;;;;;11.17;8.23;;;16.60;99.90;;;;;;5073286;28;20041;-64
2023/09/28 04:38:44;;;;;;;12.73;8.00;;;16.60;99.90;;;;;;5072707;28;20051;-64
2023/09/28 04:41:11;;;;;;;11.50;8.17;;;16.50;99.90;;;;;;5072863;28;20056;-64
2023/09/28 04:43:37;;;;;;;11.87;8.27;;;16.60;99.90;;;;;;5073004;28;20052;-64
2023/09/28 04:46:07;;;;;;;11.90;8.10;;;16.60;99.90;;;;;;5073099;28;20119;-64
2023/09/28 04:48:33;;;;;;;12.70;7.93;;;16.60;99.90;;;;;;5073686;28;20048;-64
2023/09/28 04:50:59;;;;;;;13.17;7.83;;;16.60;99.90;;;;;;5073079;28;20485;-64
2023/09/28 04:53:24;;;;;;;11.80;7.73;;;16.60;99.90;;;;;;5072998;28;20040;-64
2023/09/28 04:55:51;;;;;;;11.20;6.83;;;16.60;99.90;;;;;;5073829;28;20444;-64
2023/09/28 04:58:17;;;;;;;13.93;6.60;;;16.60;99.90;;;;;;5073527;28;20040;-64
2023/09/28 05:00:43;;;;;;;16.90;5.93;;;16.60;99.90;;;;;;5072542;28;20376;-64
2023/09/28 05:03:08;;;;;;;12.17;5.40;;;16.60;99.90;;;;;;5072387;28;20041;-64
2023/09/28 05:05:34;;;;;;;12.23;5.23;;;16.60;99.90;;;;;;5072994;28;20147;-64
2023/09/28 05:08:00;;;;;;;12.97;6.30;;;16.60;99.90;;;;;;5073417;28;20374;-65
2023/09/28 05:10:26;;;;;;;18.57;5.43;;;16.60;99.90;;;;;;5074059;28;20074;-64
2023/09/28 05:12:52;;;;;;;13.63;4.87;;;16.50;99.90;;;;;;5076839;28;20083;-65
2023/09/28 05:15:17;;;;;;;15.03;4.57;;;16.50;99.90;;;;;;5077109;28;20507;-64
2023/09/28 05:17:44;;;;;;;15.13;4.70;;;16.50;99.90;;;;;;5076588;28;20170;-64
2023/09/28 05:20:11;;;;;;;15.40;4.97;;;16.50;99.90;;;;;;5076495;28;20124;-65
2023/09/28 05:22:36;;;;;;;16.83;3.93;;;16.50;99.90;;;;;;5076390;28;20043;-65
2023/09/28 05:25:03;;;;;;;23.13;4.17;;;16.60;99.90;;;;;;5076643;28;20131;-65
2023/09/28 05:27:28;;;;;;;20.10;4.30;;;16.60;99.90;;;;;;5058789;28;20374;-65
2023/09/28 05:29:54;;;;;;;22.73;5.37;;;16.60;99.90;;;;;;5059063;28;20070;-65
2023/09/28 05:32:20;;;;;;;27.30;5.57;;;16.60;99.90;;;;;;5076455;28;20489;-65
2023/09/28 05:34:46;;;;;;;27.73;6.57;;;16.60;99.90;;;;;;5076513;28;20040;-66
2023/09/28 05:37:13;;;;;;;26.13;5.97;;;16.60;99.90;;;;;;5076735;28;20080;-66
2023/09/28 05:39:38;;;;;;;25.10;4.93;;;16.60;99.90;;;;;;5075112;28;20052;-65
2023/09/28 05:42:04;;;;;;;26.97;5.77;;;16.60;99.90;;;;;;5076003;28;20131;-66
2023/09/28 05:44:31;;;;;;;28.40;5.60;;;16.60;99.90;;;;;;5076070;28;20052;-65
2023/09/28 05:46:57;;;;;;;29.03;5.37;;;16.60;99.90;;;;;;5075817;28;20499;-65
2023/09/28 05:49:23;;;;;;;24.73;4.87;;;16.60;99.90;;;;;;5075984;28;20102;-66
2023/09/28 05:51:49;;;;;;;32.10;6.23;;;16.60;99.90;;;;;;5075908;28;20499;-65
2023/09/28 05:54:15;;;;;;;29.37;5.83;;;16.60;99.90;;;;;;5075776;28;20123;-66
2023/09/28 05:56:40;;;;;;;33.87;6.37;;;16.50;99.90;;;;;;5075764;28;20047;-66
2023/09/28 05:59:07;;;;;;;28.93;6.40;;;16.50;99.90;;;;;;5076301;28;20625;-66
2023/09/28 06:01:33;;;;;;;23.77;5.47;;;16.50;99.90;;;;;;5075859;28;20083;-65
2023/09/28 06:03:58;;;;;;;31.80;5.83;;;16.50;99.90;;;;;;5075450;28;20098;-65
2023/09/28 06:06:24;;;;;;;26.87;5.80;;;16.50;99.90;;;;;;5074518;28;20137;-65
2023/09/28 06:08:50;;;;;;;25.53;5.53;;;16.60;99.90;;;;;;5058052;28;20048;-65
2023/09/28 06:11:17;;;;;;;26.27;4.70;;;16.60;99.90;;;;;;5074654;28;20477;-66
2023/09/28 06:13:46;;;;;;;25.60;5.10;;;16.50;99.90;;;;;;5075473;28;20127;-65
2023/09/28 06:16:13;;;;;;;23.20;5.17;;;16.60;99.90;;;;;;5075463;28;20082;-65
2023/09/28 06:18:41;;;;;;;31.23;5.87;;;16.60;99.90;;;;;;5076215;28;20126;-65
2023/09/28 06:21:06;;;;;;;29.23;5.30;;;16.60;99.90;;;;;;5075654;28;20055;-66
2023/09/28 06:23:33;;;;;;;28.57;5.37;;;16.70;99.90;;;;;;5073464;28;20552;-65
2023/09/28 06:26:00;;;;;;;31.60;6.27;;;16.70;99.90;;;;;;5074978;28;20503;-65
2023/09/28 06:28:26;;;;;;;23.50;5.07;;;16.70;99.90;;;;;;5075181;28;20421;-65
2023/09/28 06:30:55;;;;;;;32.33;6.90;;;16.70;99.90;;;;;;5075101;28;20044;-65
2023/09/28 06:33:22;;;;;;;29.43;5.93;;;16.80;99.90;;;;;;5075510;28;20055;-65
2023/09/28 06:35:48;;;;;;;26.23;6.17;;;16.80;99.90;;;;;;5075598;28;20052;-65
2023/09/28 06:38:14;;;;;;;31.37;6.93;;;16.80;99.90;;;;;;5075047;28;20049;-65
2023/09/28 06:40:42;;;;;;;27.37;5.77;;;16.90;99.90;;;;;;5074033;28;20044;-65
2023/09/28 06:43:08;;;;;;;26.10;5.77;;;17.00;99.90;;;;;;5074882;28;20051;-66
2023/09/28 06:45:34;;;;;;;30.53;6.77;;;17.10;99.90;;;;;;5074898;28;20044;-65
2023/09/28 06:48:00;;;;;;;24.73;5.47;;;17.20;99.90;;;;;;5074783;28;20477;-65
2023/09/28 06:50:27;;;;;;;22.83;5.87;;;17.30;99.90;;;;;;5073451;28;20048;-65
2023/09/28 06:52:53;;;;;;;24.90;6.03;;;17.30;99.90;;;;;;5074660;28;20066;-65
2023/09/28 06:55:22;;;;;;;23.23;5.53;;;17.40;99.90;;;;;;5074699;28;20131;-65
2023/09/28 06:57:48;;;;;;;26.43;6.20;;;17.30;99.90;;;;;;5074337;28;20056;-65
2023/09/28 07:00:16;;;;;;;24.00;6.57;;;17.30;99.90;;;;;;5074598;28;20441;-64
2023/09/28 07:02:47;;;;;;;28.13;6.07;;;17.30;99.90;;;;;;5073513;28;20048;-64
2023/09/28 07:05:16;;;;;;;29.03;6.53;;;17.40;99.90;;;;;;5074556;28;20059;-65
2023/09/28 07:07:45;;;;;;;28.87;6.57;;;17.30;99.90;;;;;;5074419;28;20041;-64
2023/09/28 07:10:14;;;;;;;28.53;6.13;;;17.40;99.90;;;;;;5074357;28;20445;-64
2023/09/28 07:12:40;;;;;;;28.07;6.73;;;17.40;99.90;;;;;;5074264;28;20194;-64
2023/09/28 07:15:08;;;;;;;28.87;6.13;;;17.50;99.90;;;;;;5074802;28;20060;-64
2023/09/28 07:17:34;;;;;;;30.67;6.00;;;17.60;99.90;;;;;;5073927;28;20530;-65
2023/09/28 07:20:00;;;;;;;25.93;6.10;;;17.90;99.90;;;;;;5074256;28;20117;-64
2023/09/28 07:22:26;;;;;;;32.37;6.50;;;18.20;99.90;;;;;;5074059;28;20036;-64
2023/09/28 07:24:53;;;;;;;25.77;6.43;;;18.20;99.90;;;;;;5073605;28;20505;-64
2023/09/28 07:27:19;;;;;;;28.77;6.97;;;18.30;99.90;;;;;;5074046;28;20040;-65
2023/09/28 07:29:44;;;;;;;32.33;6.67;;;18.20;99.90;;;;;;5074750;28;20118;-64
2023/09/28 07:32:10;;;;;;;23.07;6.13;;;18.20;99.90;;;;;;5073835;28;20070;-64
2023/09/28 07:34:36;;;;;;;23.63;5.57;;;18.20;99.90;;;;;;5073691;28;20106;-64
2023/09/28 07:37:03;;;;;;;18.30;4.83;;;18.20;99.90;;;;;;5072759;28;20075;-64
2023/09/28 07:39:29;;;;;;;22.33;6.10;;;18.20;99.90;;;;;;5073914;28;20103;-65
2023/09/28 07:41:55;;;;;;;21.80;5.63;;;18.20;99.90;;;;;;5073704;28;20516;-64
2023/09/28 07:44:21;;;;;;;23.60;5.70;;;18.30;99.90;;;;;;5073813;28;20036;-64
2023/09/28 07:46:47;;;;;;;21.33;5.07;;;18.30;99.90;;;;;;5073765;28;20239;-64
2023/09/28 07:49:17;;;;;;;21.87;4.87;;;18.40;99.90;;;;;;5074407;28;20206;-64
2023/09/28 07:51:42;;;;;;;27.40;5.67;;;18.40;99.90;;;;;;5074432;28;20067;-65
2023/09/28 07:54:08;;;;;;;27.37;6.00;;;18.50;99.90;;;;;;5073878;28;20489;-64
2023/09/28 07:56:34;;;;;;;21.40;5.27;;;18.50;99.90;;;;;;5073611;28;20044;-65
2023/09/28 07:59:00;;;;;;;23.97;5.40;;;18.60;99.90;;;;;;5073635;28;20052;-64
2023/09/28 08:01:26;;;;;;;23.97;5.43;;;18.60;99.90;;;;;;5072678;28;20052;-65
2023/09/28 08:03:52;;;;;;;24.80;5.37;;;18.60;99.90;;;;;;5073558;28;20047;-64
2023/09/28 08:06:19;;;;;;;22.73;6.00;;;18.70;99.90;;;;;;5072384;28;20052;-64
2023/09/28 08:08:45;;;;;;;24.13;5.83;;;18.80;99.90;;;;;;5073503;28;20053;-64
2023/09/28 08:11:12;;;;;;;27.57;6.10;;;19.00;99.90;;;;;;5072374;28;20110;-64
2023/09/28 08:13:38;;;;;;;22.07;5.17;;;19.10;99.90;;;;;;5072172;28;20044;-65
2023/09/28 08:16:04;;;;;;;26.83;5.93;;;19.10;99.90;;;;;;5073173;28;20072;-64
2023/09/28 08:18:30;;;;;;;23.73;4.87;;;19.20;99.90;;;;;;5073868;28;20500;-64
2023/09/28 08:20:55;;;;;;;17.70;5.03;;;19.30;99.90;;;;;;5073419;28;20045;-64
2023/09/28 08:23:21;;;;;;;22.53;6.00;;;19.40;99.90;;;;;;5073637;28;20083;-65
2023/09/28 08:25:47;;;;;;;23.40;5.53;;;19.60;99.90;;;;;;5073632;28;20362;-64
2023/09/28 08:28:14;;;;;;;25.60;5.43;;;19.80;99.90;;;;;;5055623;28;20139;-65
2023/09/28 08:30:40;;;;;;;28.83;6.33;;;19.80;99.90;;;;;;5073775;28;20484;-64
2023/09/28 08:33:08;;;;;;;20.67;5.63;;;19.90;99.90;;;;;;5073149;28;20037;-66
2023/09/28 08:35:35;;;;;;;23.23;5.63;;;19.90;99.90;;;;;;5073766;28;20063;-67
2023/09/28 08:38:01;;;;;;;21.03;4.97;;;20.00;99.90;;;;;;5073300;28;20040;-65
2023/09/28 08:40:30;;;;;;;27.67;6.80;;;20.00;99.90;;;;;;5072027;28;20611;-66
2023/09/28 08:42:59;;;;;;;22.90;6.07;;;20.00;99.90;;;;;;5073188;28;20473;-66
2023/09/28 08:45:26;;;;;;;23.13;6.07;;;20.10;99.90;;;;;;5074059;28;20142;-66
2023/09/28 08:47:55;;;;;;;24.53;5.63;;;20.10;99.90;;;;;;5077380;28;20389;-66
2023/09/28 08:50:27;;;;;;;24.37;5.43;;;20.10;99.90;;;;;;5077372;28;20500;-66
2023/09/28 08:52:54;;;;;;;26.70;5.93;;;20.00;99.90;;;;;;5077457;28;20411;-66
2023/09/28 08:55:21;;;;;;;26.33;6.10;;;19.90;99.90;;;;;;5076911;28;20063;-66
2023/09/28 08:57:46;;;;;;;24.67;6.47;;;19.80;99.90;;;;;;5077511;28;20451;-65
2023/09/28 09:00:14;;;;;;;31.57;5.63;;;19.70;99.90;;;;;;5077306;28;20049;-65
2023/09/28 09:02:43;;;;;;;29.67;6.93;;;19.60;99.90;;;;;;5076671;28;20110;-65
2023/09/28 09:05:12;;;;;;;30.27;6.57;;;19.50;99.90;;;;;;5076696;28;20049;-67
2023/09/28 09:07:40;;;;;;;24.43;6.07;;;19.40;99.90;;;;;;5076610;28;20044;-65
2023/09/28 09:10:10;;;;;;;26.43;5.60;;;19.40;99.90;;;;;;5077119;28;20044;-66
2023/09/28 09:12:35;;;;;;;26.83;6.00;;;19.40;99.90;;;;;;5076444;28;20052;-66
2023/09/28 09:15:04;;;;;;;24.73;5.93;;;19.30;99.90;;;;;;5076316;28;20423;-65
2023/09/28 09:17:33;;;;;;;26.93;5.53;;;19.40;99.90;;;;;;5076652;28;20533;-67
2023/09/28 09:19:59;;;;;;;28.53;6.00;;;19.40;99.90;;;;;;5076636;28;20098;-66
2023/09/28 09:22:28;;;;;;;26.30;5.90;;;19.40;99.90;;;;;;5076830;28;20040;-66
2023/09/28 09:24:58;;;;;;;26.47;6.03;;;19.50;99.90;;;;;;5076250;28;20052;-66
2023/09/28 09:27:31;;;;;;;24.73;6.73;;;19.40;99.90;;;;;;5076560;28;20388;-66
2023/09/28 09:30:02;;;;;;;22.70;6.07;;;19.40;99.90;;;;;;5076098;28;20396;-67
2023/09/28 09:32:28;;;;;;;22.80;5.17;;;19.40;99.90;;;;;;5076855;28;20041;-66
2023/09/28 09:34:54;;;;;;;24.87;5.10;;;19.50;99.90;;;;;;5076191;28;20060;-66
2023/09/28 09:37:20;;;;;;;23.07;5.03;;;19.50;99.90;;;;;;5075076;28;20049;-66
2023/09/28 09:39:47;;;;;;;22.77;5.17;;;19.60;99.90;;;;;;5075945;28;20044;-66
2023/09/28 09:42:12;;;;;;;22.13;5.20;;;19.60;99.90;;;;;;5076394;28;20040;-66
2023/09/28 09:44:39;;;;;;;26.10;5.97;;;19.70;99.90;;;;;;5074757;28;20476;-65
2023/09/28 09:47:04;;;;;;;20.40;4.77;;;19.70;99.90;;;;;;5075831;28;20080;-65
2023/09/28 09:49:31;;;;;;;28.13;6.07;;;19.60;99.90;;;;;;5074597;28;20393;-66
2023/09/28 09:52:02;;;;;;;22.57;5.40;;;19.60;99.90;;;;;;5074718;28;20041;-65
2023/09/28 09:54:29;;;;;;;25.93;6.10;;;19.60;99.90;;;;;;5074750;28;20503;-64
2023/09/28 09:56:57;;;;;;;19.10;4.67;;;19.60;99.90;;;;;;5074712;28;20135;-66
2023/09/28 09:59:23;;;;;;;27.70;5.50;;;19.70;99.90;;;;;;5075498;28;20060;-66
2023/09/28 10:01:50;;;;;;;27.27;6.17;;;19.70;99.90;;;;;;5074890;28;20117;-67
2023/09/28 10:04:18;;;;;;;25.00;4.93;;;19.70;99.90;;;;;;5075146;28;20048;-67
2023/09/28 10:06:56;;;;;;;23.77;4.80;;;19.60;99.90;;;;;;5075504;28;20110;-67
2023/09/28 10:09:23;;;;;;;25.37;5.67;;;19.60;99.90;;;;;;5075991;28;20088;-67
2023/09/28 10:11:50;;;;;;;25.40;6.47;;;19.60;99.90;;;;;;5075483;28;20051;-66
2023/09/28 10:14:18;;;;;;;24.33;5.67;;;19.60;99.90;;;;;;5075417;28;20122;-65
2023/09/28 10:16:48;;;;;;;21.10;5.63;;;19.70;99.90;;;;;;5074710;28;20100;-66
2023/09/28 10:19:19;;;;;;;20.77;6.10;;;19.70;99.90;;;;;;5075004;28;20393;-65
2023/09/28 10:21:50;;;;;;;20.87;4.90;;;19.70;99.90;;;;;;5074084;28;20047;-66
2023/09/28 10:24:20;;;;;;;22.13;5.30;;;19.70;99.90;;;;;;5076097;28;20095;-67
2023/09/28 10:26:51;;;;;;;25.67;6.40;;;19.70;99.90;;;;;;5075734;28;20438;-65
2023/09/28 10:29:28;;;;;;;20.70;5.30;;;19.70;99.90;;;;;;5074987;28;20051;-66
2023/09/28 10:31:56;;;;;;;23.77;5.57;;;19.70;99.90;;;;;;5074419;28;20441;-65
2023/09/28 10:34:23;;;;;;;26.33;5.73;;;19.70;99.90;;;;;;5075240;28;20119;-65
2023/09/28 10:37:18;;;;;;;24.17;5.77;;;19.70;99.90;;;;;;5075469;28;20052;-65
2023/09/28 10:39:54;;;;;;;21.00;5.17;;;19.80;99.90;;;;;;5075320;28;20106;-66
2023/09/28 10:42:22;;;;;;;25.23;5.83;;;19.70;99.90;;;;;;5074993;28;20087;-65
2023/09/28 10:44:55;;;;;;;19.53;5.17;;;19.70;99.90;;;;;;5074631;28;20101;-65
2023/09/28 10:47:22;;;;;;;23.10;5.57;;;19.70;99.90;;;;;;5074771;28;20123;-64
2023/09/28 10:49:57;;;;;;;21.03;5.20;;;19.70;99.90;;;;;;5074574;28;20078;-65
2023/09/28 10:52:23;;;;;;;16.70;5.23;;;19.70;99.90;;;;;;5074642;28;20489;-64
2023/09/28 10:54:49;;;;;;;19.77;4.80;;;19.60;99.90;;;;;;5074550;28;20063;-65
2023/09/28 10:57:15;;;;;;;25.93;6.13;;;19.60;99.90;;;;;;5074606;28;20477;-64
2023/09/28 10:59:41;;;;;;;23.00;4.63;;;19.60;99.90;;;;;;5074498;28;20040;-66
2023/09/28 11:02:08;;;;;;;23.63;5.57;;;19.60;99.90;;;;;;5074879;28;20078;-65
2023/09/28 11:04:38;;;;;;;28.17;6.20;;;19.60;99.90;;;;;;5074444;28;20051;-64
2023/09/28 11:07:06;;;;;;;21.03;5.43;;;19.60;99.90;;;;;;5075150;28;20134;-64
2023/09/28 11:09:31;;;;;;;22.27;5.37;;;19.60;99.90;;;;;;5073282;28;20094;-65
2023/09/28 11:11:57;;;;;;;37.03;5.30;;;19.60;99.90;;;;;;5074407;28;20044;-64
2023/09/28 11:14:26;;;;;;;26.87;5.43;;;19.60;99.90;;;;;;5074347;28;20074;-65
2023/09/28 11:16:52;;;;;;;23.70;6.17;;;19.70;99.90;;;;;;5073962;28;20056;-64
2023/09/28 11:19:19;;;;;;;18.77;5.30;;;19.80;99.90;;;;;;5073304;28;20127;-65
2023/09/28 11:21:45;;;;;;;20.17;5.17;;;19.80;99.90;;;;;;5056598;28;20067;-66
2023/09/28 11:24:14;;;;;;;25.23;6.27;;;19.90;99.90;;;;;;5074185;28;20040;-65
2023/09/28 11:26:40;;;;;;;25.70;5.67;;;19.90;99.90;;;;;;5074901;28;20125;-65
2023/09/28 11:29:06;;;;;;;20.30;5.30;;;20.00;99.90;;;;;;5074064;28;20491;-65
2023/09/28 11:31:35;;;;;;;21.30;5.00;;;20.00;99.90;;;;;;5073614;28;20048;-66
2023/09/28 11:34:05;;;;;;;18.30;4.97;;;20.00;99.90;;;;;;5074539;28;20037;-66
2023/09/28 11:36:32;;;;;;;20.93;4.80;;;19.90;99.90;;;;;;5073750;28;20056;-66
2023/09/28 11:38:59;;;;;;;21.17;5.03;;;19.90;99.90;;;;;;5074313;28;20185;-67
2023/09/28 11:41:26;;;;;;;22.80;5.10;;;20.00;99.90;;;;;;5073739;28;20131;-66
2023/09/28 11:43:59;;;;;;;26.67;5.70;;;20.00;99.90;;;;;;5073676;28;20115;-66
2023/09/28 11:46:33;;;;;;;20.07;5.30;;;20.00;99.90;;;;;;5074426;28;20075;-66
2023/09/28 11:49:06;;;;;;;22.17;5.70;;;20.10;99.90;;;;;;5073378;28;20370;-66
2023/09/28 11:51:32;;;;;;;22.70;5.63;;;20.10;99.90;;;;;;5073632;28;20044;-67
2023/09/28 11:53:58;;;;;;;21.97;5.30;;;20.00;99.90;;;;;;5073541;28;20044;-67
2023/09/28 11:56:24;;;;;;;25.10;6.70;;;20.00;99.90;;;;;;5073610;28;20041;-68
2023/09/28 11:58:49;;;;;;;26.20;5.50;;;20.00;99.90;;;;;;5072536;28;20131;-67
2023/09/28 12:01:15;;;;;;;22.67;5.57;;;20.00;99.90;;;;;;5073123;28;20119;-67
2023/09/28 12:03:41;;;;;;;17.53;5.37;;;20.00;99.90;;;;;;5073873;28;20051;-67
2023/09/28 12:06:06;;;;;;;24.90;6.33;;;20.00;99.90;;;;;;5073511;28;20441;-68
2023/09/28 12:08:33;;;;;;;20.40;4.83;;;20.00;99.90;;;;;;5074222;28;20128;-66
2023/09/28 12:10:59;;;;;;;22.23;5.43;;;20.00;99.90;;;;;;5055654;28;20387;-65
2023/09/28 12:13:26;;;;;;;22.87;6.27;;;20.10;99.90;;;;;;5073884;28;20044;-66
2023/09/28 12:15:54;;;;;;;20.77;5.33;;;20.10;99.90;;;;;;5072277;28;20053;-68
2023/09/28 12:18:21;;;;;;;20.33;4.90;;;20.10;99.90;;;;;;5073343;28;20048;-67
2023/09/28 12:20:47;;;;;;;19.70;4.97;;;20.10;99.90;;;;;;5072503;28;20110;-68
2023/09/28 12:23:13;;;;;;;22.87;5.63;;;20.00;99.90;;;;;;5073353;28;20127;-68
2023/09/28 12:25:40;;;;;;;20.90;5.73;;;20.00;99.90;;;;;;5073302;28;20084;-67
2023/09/28 12:28:07;;;;;;;22.90;4.80;;;20.00;99.90;;;;;;5072615;28;20056;-66
2023/09/28 12:30:33;;;;;;;22.47;6.13;;;20.00;99.90;;;;;;5073357;28;20405;-66
2023/09/28 12:32:59;;;;;;;24.63;5.67;;;20.00;99.90;;;;;;5072250;28;20533;-67
2023/09/28 12:35:26;;;;;;;21.63;5.70;;;20.00;99.90;;;;;;5072363;28;20411;-66
2023/09/28 12:37:53;;;;;;;20.03;5.37;;;20.00;99.90;;;;;;5073799;28;20049;-67